Time;durP1;ratioP1;P1;durP2;ratioP2;P2;SDS_P1;SDS_P2;PMS_P1;PMS_P2;Temp;Humidity;BMP_temperature;BMP_pressure;BME280_temperature;BME280_humidity;BME280_pressure;Samples;Min_cycle;Max_cycle;Signal;HPM_P1;HPM_P2
2023/04/04 00:02:28;;;;;;;4.70;3.20;;;;;;;-0.82;61.19;101437.39;103631;280;38306;-72
2023/04/04 00:05:02;;;;;;;6.00;3.00;;;;;;;-0.90;61.25;101435.81;103666;280;39827;-72
2023/04/04 00:07:36;;;;;;;7.20;3.80;;;;;;;-0.98;61.40;101432.53;103675;280;39989;-72
2023/04/04 00:10:12;;;;;;;7.60;3.90;;;;;;;-1.05;61.70;101434.57;103655;280;39544;-71
2023/04/04 00:12:46;;;;;;;7.00;3.60;;;;;;;-1.14;61.91;101431.95;103664;280;40458;-72
2023/04/04 00:15:20;;;;;;;7.40;3.60;;;;;;;-1.22;62.06;101429.67;103661;280;39292;-69
2023/04/04 00:17:55;;;;;;;7.30;3.80;;;;;;;-1.30;62.27;101425.33;103677;280;39973;-74
2023/04/04 00:20:30;;;;;;;8.20;3.70;;;;;;;-1.39;62.55;101423.72;103671;280;39389;-72
2023/04/04 00:23:04;;;;;;;7.90;3.60;;;;;;;-1.48;62.78;101422.46;103675;280;39862;-72
2023/04/04 00:25:38;;;;;;;5.20;2.90;;;;;;;-1.55;63.02;101420.73;103653;280;38290;-70
2023/04/04 00:28:12;;;;;;;7.80;2.70;;;;;;;-1.58;63.09;101415.50;103538;279;189211;-71
2023/04/04 00:30:46;;;;;;;6.80;3.30;;;;;;;-1.60;63.22;101419.38;103645;280;38423;-72
2023/04/04 00:33:20;;;;;;;6.40;3.50;;;;;;;-1.61;63.35;101419.52;103654;280;38359;-72
2023/04/04 00:35:57;;;;;;;5.50;3.30;;;;;;;-1.64;63.44;101418.77;103638;280;38412;-71
2023/04/04 00:38:31;;;;;;;9.50;3.70;;;;;;;-1.69;63.69;101415.19;103542;280;41766;-72
2023/04/04 00:41:06;;;;;;;7.60;3.50;;;;;;;-1.75;63.76;101412.96;103682;280;39646;-73
2023/04/04 00:43:40;;;;;;;7.10;4.00;;;;;;;-1.80;63.80;101413.52;103642;280;38477;-73
2023/04/04 00:46:16;;;;;;;9.40;4.50;;;;;;;-1.87;63.97;101415.52;103658;280;38244;-72
2023/04/04 00:48:50;;;;;;;8.30;4.50;;;;;;;-1.95;64.23;101415.64;103657;280;38657;-73
2023/04/04 00:51:24;;;;;;;13.10;5.10;;;;;;;-2.02;64.36;101410.29;103639;280;39012;-72
2023/04/04 00:53:58;;;;;;;8.70;4.00;;;;;;;-2.08;64.49;101412.17;103678;280;39600;-72
2023/04/04 00:56:32;;;;;;;8.60;3.50;;;;;;;-2.13;64.57;101405.70;103704;279;40225;-72
2023/04/04 00:59:06;;;;;;;6.10;3.00;;;;;;;-2.14;64.82;101401.55;103659;280;39909;-71
2023/04/04 01:01:41;;;;;;;10.10;4.50;;;;;;;-2.16;65.04;101401.15;103435;282;176022;-73
2023/04/04 01:04:14;;;;;;;9.40;4.60;;;;;;;-2.17;65.27;101400.11;103661;280;38266;-74
2023/04/04 01:06:48;;;;;;;7.40;5.50;;;;;;;-2.18;65.55;101394.95;103687;280;38238;-71
2023/04/04 01:09:22;;;;;;;9.90;5.40;;;;;;;-2.19;65.57;101386.87;103675;280;38407;-69
2023/04/04 01:11:57;;;;;;;9.20;4.90;;;;;;;-2.22;65.74;101382.16;103013;280;934845;-70
2023/04/04 01:14:31;;;;;;;10.90;4.20;;;;;;;-2.25;66.03;101377.45;103670;280;38273;-70
2023/04/04 01:17:05;;;;;;;6.90;4.30;;;;;;;-2.31;66.11;101375.90;103676;280;38234;-72
2023/04/04 01:19:43;;;;;;;8.40;3.60;;;;;;;-2.37;66.23;101375.73;103671;280;38418;-72
2023/04/04 01:22:17;;;;;;;7.60;3.60;;;;;;;-2.43;66.64;101374.36;103648;280;38841;-70
2023/04/04 01:24:51;;;;;;;4.90;3.40;;;;;;;-2.48;67.01;101370.79;103675;279;38624;-68
2023/04/04 01:27:25;;;;;;;7.10;3.40;;;;;;;-2.50;66.83;101365.75;103670;280;38257;-72
2023/04/04 01:29:59;;;;;;;4.70;2.30;;;;;;;-2.50;66.77;101364.23;103641;280;38293;-70
2023/04/04 01:32:44;;;;;;;6.10;2.80;;;;;;;-2.48;67.01;101365.98;103684;280;38071;-69
2023/04/04 01:35:26;;;;;;;8.10;3.00;;;;;;;-2.46;67.28;101363.66;103107;280;672253;-72
2023/04/04 01:38:07;;;;;;;9.60;3.60;;;;;;;-2.44;67.41;101365.42;103667;280;39787;-72
2023/04/04 01:40:41;;;;;;;10.30;5.20;;;;;;;-2.46;67.47;101362.83;103506;280;38290;-71
2023/04/04 01:43:15;;;;;;;7.90;3.70;;;;;;;-2.48;67.59;101367.17;103679;280;39506;-71
2023/04/04 01:45:51;;;;;;;7.20;4.00;;;;;;;-2.53;67.71;101364.30;103675;280;39901;-71
2023/04/04 01:48:25;;;;;;;9.00;4.00;;;;;;;-2.58;67.88;101365.02;103673;280;38968;-74
2023/04/04 01:51:00;;;;;;;6.40;3.70;;;;;;;-2.62;67.91;101360.78;103697;280;40114;-73
2023/04/04 01:53:34;;;;;;;8.00;3.40;;;;;;;-2.67;67.96;101359.63;103641;280;39393;-73
2023/04/04 01:56:08;;;;;;;9.40;2.90;;;;;;;-2.70;68.04;101358.64;103681;272;38240;-71
2023/04/04 01:58:43;;;;;;;6.70;2.90;;;;;;;-2.73;68.34;101357.38;103684;280;38811;-73
2023/04/04 02:01:17;;;;;;;5.20;3.10;;;;;;;-2.70;68.32;101364.27;103698;279;38327;-71
2023/04/04 02:03:51;;;;;;;6.80;3.40;;;;;;;-2.69;68.60;101364.48;103698;280;39519;-71
2023/04/04 02:06:25;;;;;;;7.90;3.80;;;;;;;-2.68;68.69;101363.32;103559;280;38388;-70
2023/04/04 02:08:59;;;;;;;6.50;3.30;;;;;;;-2.70;68.74;101364.79;103644;280;38417;-70
2023/04/04 02:11:34;;;;;;;8.50;3.90;;;;;;;-2.74;68.77;101363.15;103662;280;38277;-71
2023/04/04 02:14:08;;;;;;;7.90;3.50;;;;;;;-2.76;68.90;101359.14;103477;282;40003;-71
2023/04/04 02:16:42;;;;;;;7.40;4.40;;;;;;;-2.79;69.39;101359.38;103536;280;38431;-72
2023/04/04 02:19:16;;;;;;;8.60;3.80;;;;;;;-2.83;69.31;101358.05;103648;280;38852;-70
2023/04/04 02:21:50;;;;;;;6.70;3.40;;;;;;;-2.86;69.24;101359.34;103690;268;38397;-69
2023/04/04 02:24:25;;;;;;;10.60;3.60;;;;;;;-2.89;69.34;101358.03;103652;280;39624;-70
2023/04/04 02:26:58;;;;;;;6.70;3.00;;;;;;;-2.92;69.49;101361.20;103647;280;38586;-71
2023/04/04 02:29:32;;;;;;;9.00;5.10;;;;;;;-2.92;69.48;101366.30;103644;280;38415;-71
2023/04/04 02:32:06;;;;;;;10.20;5.10;;;;;;;-2.90;69.59;101360.59;103675;280;39406;-73
2023/04/04 02:34:40;;;;;;;6.50;4.00;;;;;;;-2.89;69.63;101363.52;103688;280;39103;-73
2023/04/04 02:37:14;;;;;;;7.40;4.10;;;;;;;-2.90;69.85;101369.44;103614;280;38427;-73
2023/04/04 02:39:48;;;;;;;10.00;3.80;;;;;;;-2.91;69.82;101370.08;103656;280;38429;-73
2023/04/04 02:42:22;;;;;;;6.80;3.40;;;;;;;-2.94;69.97;101369.48;103695;279;38475;-72
2023/04/04 02:44:57;;;;;;;9.50;3.70;;;;;;;-2.98;69.94;101367.83;103647;279;40030;-74
2023/04/04 02:47:31;;;;;;;5.70;3.10;;;;;;;-3.02;70.09;101367.67;103671;280;38517;-72
2023/04/04 02:50:06;;;;;;;5.90;3.00;;;;;;;-3.07;70.09;101361.88;103681;280;38330;-72
2023/04/04 02:52:40;;;;;;;6.60;3.40;;;;;;;-3.09;70.23;101364.38;103548;280;39072;-71
2023/04/04 02:55:14;;;;;;;13.20;5.40;;;;;;;-3.08;70.29;101361.67;103685;280;38343;-71
2023/04/04 02:57:54;;;;;;;20.30;8.50;;;;;;;-3.08;70.50;101364.92;103717;280;38946;-74
2023/04/04 03:00:28;;;;;;;22.20;9.40;;;;;;;-3.08;70.44;101367.83;103653;279;39657;-74
2023/04/04 03:03:02;;;;;;;19.50;9.40;;;;;;;-3.08;70.57;101367.13;103668;280;39519;-74
2023/04/04 03:05:37;;;;;;;16.50;8.50;;;;;;;-3.11;70.55;101369.10;103646;280;38709;-72
2023/04/04 03:08:13;;;;;;;17.30;7.30;;;;;;;-3.15;70.45;101370.68;103656;279;38355;-69
2023/04/04 03:10:48;;;;;;;18.60;8.90;;;;;;;-3.19;70.46;101370.35;103651;279;38265;-70
2023/04/04 03:13:25;;;;;;;20.80;9.00;;;;;;;-3.23;70.25;101370.58;103692;279;38277;-72
2023/04/04 03:16:05;;;;;;;18.40;8.80;;;;;;;-3.26;70.35;101375.92;103672;279;39848;-73
2023/04/04 03:18:40;;;;;;;18.20;7.60;;;;;;;-3.28;70.34;101374.99;103684;279;39645;-72
2023/04/04 03:21:14;;;;;;;18.00;8.10;;;;;;;-3.28;70.60;101374.16;103731;279;39710;-71
2023/04/04 03:23:48;;;;;;;15.00;7.70;;;;;;;-3.26;70.72;101372.00;103694;279;39419;-71
2023/04/04 03:26:22;;;;;;;11.30;5.50;;;;;;;-3.26;70.67;101373.02;103695;279;38313;-73
2023/04/04 03:29:03;;;;;;;9.60;5.00;;;;;;;-3.29;70.77;101371.39;103746;279;38634;-72
2023/04/04 03:31:38;;;;;;;9.90;5.10;;;;;;;-3.34;70.85;101368.67;103764;279;38648;-69
2023/04/04 03:34:14;;;;;;;9.80;4.30;;;;;;;-3.38;70.77;101362.72;103710;279;39165;-71
2023/04/04 03:36:48;;;;;;;9.90;3.50;;;;;;;-3.44;70.81;101363.54;103656;279;39285;-72
2023/04/04 03:39:22;;;;;;;7.00;3.50;;;;;;;-3.48;70.72;101359.63;103705;279;38380;-71
2023/04/04 03:41:56;;;;;;;8.10;3.10;;;;;;;-3.50;70.89;101361.28;103682;268;38577;-70
2023/04/04 03:44:30;;;;;;;10.20;3.50;;;;;;;-3.49;71.04;101362.34;103688;279;39997;-72
2023/04/04 03:47:04;;;;;;;7.20;3.80;;;;;;;-3.48;71.20;101360.83;103733;279;39592;-70
2023/04/04 03:49:38;;;;;;;7.90;3.20;;;;;;;-3.49;71.19;101357.41;103657;279;40158;-70
2023/04/04 03:52:12;;;;;;;6.30;3.10;;;;;;;-3.50;71.20;101357.86;103730;279;38713;-70
2023/04/04 03:54:46;;;;;;;4.70;3.10;;;;;;;-3.56;71.27;101353.57;103715;279;39679;-70
2023/04/04 03:57:20;;;;;;;8.10;3.70;;;;;;;-3.61;71.24;101357.48;103714;279;38852;-73
2023/04/04 03:59:54;;;;;;;6.30;3.60;;;;;;;-3.66;71.36;101360.56;103627;279;176381;-74
2023/04/04 04:02:31;;;;;;;7.20;3.10;;;;;;;-3.69;71.53;101362.13;103689;279;38298;-73
2023/04/04 04:05:08;;;;;;;6.50;3.10;;;;;;;-3.73;71.81;101364.55;103724;279;38360;-73
2023/04/04 04:07:45;;;;;;;5.70;2.60;;;;;;;-3.73;71.91;101364.73;103749;279;38909;-73
2023/04/04 04:10:19;;;;;;;6.10;2.60;;;;;;;-3.71;71.98;101364.65;103653;279;38237;-73
2023/04/04 04:12:53;;;;;;;5.60;3.20;;;;;;;-3.68;72.03;101360.50;103696;279;38583;-69
2023/04/04 04:15:28;;;;;;;7.10;3.50;;;;;;;-3.64;72.26;101360.45;103674;279;38461;-70
2023/04/04 04:18:02;;;;;;;6.30;3.40;;;;;;;-3.64;72.29;101359.95;103667;279;38294;-71
2023/04/04 04:20:36;;;;;;;7.90;3.40;;;;;;;-3.62;72.18;101366.14;103686;279;38306;-71
2023/04/04 04:23:12;;;;;;;7.40;3.90;;;;;;;-3.62;72.22;101363.06;103722;275;39770;-70
2023/04/04 04:25:49;;;;;;;9.80;4.30;;;;;;;-3.66;72.22;101361.41;103729;279;38257;-69
2023/04/04 04:28:24;;;;;;;8.70;3.50;;;;;;;-3.67;72.32;101361.19;103686;279;39020;-70
2023/04/04 04:31:05;;;;;;;8.60;3.60;;;;;;;-3.66;72.44;101359.70;103731;279;38540;-71
2023/04/04 04:33:40;;;;;;;6.80;3.60;;;;;;;-3.61;72.73;101362.25;103664;279;39591;-72
2023/04/04 04:36:14;;;;;;;11.30;3.90;;;;;;;-3.57;73.11;101365.45;103747;279;38596;-73
2023/04/04 04:38:49;;;;;;;9.90;4.30;;;;;;;-3.50;73.33;101365.19;103699;279;38377;-71
2023/04/04 04:41:23;;;;;;;9.40;4.40;;;;;;;-3.42;73.33;101364.46;103680;279;38876;-73
2023/04/04 04:43:58;;;;;;;7.90;3.80;;;;;;;-3.34;73.46;101360.29;103681;279;38513;-71
2023/04/04 04:46:32;;;;;;;8.30;4.30;;;;;;;-3.28;73.77;101360.48;103656;279;38882;-70
2023/04/04 04:49:06;;;;;;;10.70;3.70;;;;;;;-3.22;73.88;101362.77;103609;279;176117;-71
2023/04/04 04:51:41;;;;;;;7.20;3.40;;;;;;;-2.90;74.30;101354.94;103703;268;38362;-72
2023/04/04 04:54:15;;;;;;;8.30;4.30;;;;;;;-2.31;74.77;101352.84;103550;279;40021;-72
2023/04/04 04:56:51;;;;;;;11.30;4.40;;;;;;;-1.81;74.53;101347.63;103557;279;38324;-73
2023/04/04 04:59:31;;;;;;;8.60;4.60;;;;;;;-1.37;73.97;101348.12;103766;279;38870;-74
2023/04/04 05:02:06;;;;;;;11.20;4.30;;;;;;;-0.94;73.64;101342.05;103819;279;38544;-73
2023/04/04 05:04:58;;;;;;;10.80;4.10;;;;;;;-0.45;73.36;101336.65;103721;279;38524;-67
2023/04/04 05:07:34;;;;;;;6.70;3.50;;;;;;;0.04;73.38;101337.55;103687;279;39964;-69
2023/04/04 05:10:11;;;;;;;8.90;4.50;;;;;;;0.47;72.38;101333.23;103745;279;37263;-70
2023/04/04 05:12:47;;;;;;;6.60;4.00;;;;;;;0.79;70.93;101332.93;103691;279;39010;-72
2023/04/04 05:15:22;;;;;;;5.60;3.40;;;;;;;1.07;70.03;101329.11;103704;279;38566;-71
2023/04/04 05:17:56;;;;;;;5.90;2.80;;;;;;;1.30;69.47;101330.51;103753;279;38491;-71
2023/04/04 05:20:33;;;;;;;6.50;2.60;;;;;;;1.74;70.06;101324.59;103492;279;38230;-70
2023/04/04 05:23:07;;;;;;;4.60;2.40;;;;;;;2.69;69.87;101325.67;103736;279;39636;-72
2023/04/04 05:25:42;;;;;;;6.90;3.30;;;;;;;3.67;67.90;101323.14;103690;279;39441;-72
2023/04/04 05:28:17;;;;;;;5.70;2.80;;;;;;;4.54;64.85;101323.13;103711;279;38413;-72
2023/04/04 05:30:52;;;;;;;7.00;2.50;;;;;;;5.34;62.63;101319.87;103717;279;39434;-72
2023/04/04 05:33:27;;;;;;;7.00;2.90;;;;;;;6.30;60.15;101317.84;103561;279;38465;-72
2023/04/04 05:36:03;;;;;;;4.80;2.40;;;;;;;7.12;56.53;101316.59;103714;279;39566;-72
2023/04/04 05:38:38;;;;;;;6.30;2.80;;;;;;;7.73;52.95;101317.90;103675;279;38261;-73
2023/04/04 05:41:12;;;;;;;4.70;2.20;;;;;;;8.20;50.76;101320.80;103604;268;38247;-71
2023/04/04 05:43:47;;;;;;;5.90;2.80;;;;;;;8.40;49.13;101321.26;103678;279;38265;-70
2023/04/04 05:46:21;;;;;;;4.40;2.70;;;;;;;8.42;47.54;101321.06;103668;279;38296;-70
2023/04/04 05:48:56;;;;;;;5.50;3.20;;;;;;;7.87;47.07;101325.02;103665;268;39692;-71
2023/04/04 05:51:30;;;;;;;5.40;2.50;;;;;;;7.20;47.26;101324.16;103566;279;189540;-72
2023/04/04 05:54:06;;;;;;;6.30;2.60;;;;;;;6.64;47.58;101335.33;103690;279;38730;-73
2023/04/04 05:56:40;;;;;;;6.00;3.40;;;;;;;6.00;48.25;101334.27;103659;279;38389;-73
2023/04/04 05:59:15;;;;;;;8.00;2.80;;;;;;;5.57;49.43;101336.27;103694;279;39185;-73
2023/04/04 06:01:50;;;;;;;6.90;3.00;;;;;;;5.57;50.53;101334.54;103676;279;38281;-72
2023/04/04 06:04:24;;;;;;;5.80;2.50;;;;;;;6.26;51.28;101332.75;103679;279;39591;-73
2023/04/04 06:06:58;;;;;;;4.70;2.60;;;;;;;7.24;50.62;101324.45;103650;279;38645;-72
2023/04/04 06:09:32;;;;;;;5.20;2.90;;;;;;;8.19;49.12;101322.73;103619;279;38868;-72
2023/04/04 06:12:07;;;;;;;4.00;2.50;;;;;;;9.17;46.99;101320.23;103595;268;172506;-74
2023/04/04 06:14:41;;;;;;;5.90;2.80;;;;;;;9.79;45.52;101318.07;103576;279;175103;-75
2023/04/04 06:17:16;;;;;;;5.10;2.80;;;;;;;10.51;44.62;101316.05;103677;279;38567;-77
2023/04/04 06:19:50;;;;;;;4.50;2.70;;;;;;;11.21;42.26;101310.35;103684;279;38993;-71
2023/04/04 06:22:24;;;;;;;5.30;2.90;;;;;;;11.80;40.76;101310.53;103687;279;38254;-75
2023/04/04 06:24:58;;;;;;;7.00;2.90;;;;;;;12.14;39.06;101309.22;103684;279;39655;-73
2023/04/04 06:27:32;;;;;;;4.30;2.60;;;;;;;12.46;38.35;101305.65;103520;279;39687;-73
2023/04/04 06:30:08;;;;;;;4.50;2.60;;;;;;;12.70;37.17;101301.90;103637;279;39425;-72
2023/04/04 06:32:42;;;;;;;5.10;3.00;;;;;;;12.89;36.86;101299.02;103686;279;39964;-74
2023/04/04 06:35:17;;;;;;;4.20;2.80;;;;;;;13.09;36.14;101299.58;103659;279;39698;-74
2023/04/04 06:37:56;;;;;;;4.60;2.80;;;;;;;13.18;35.86;101292.59;103700;279;39515;-74
2023/04/04 06:40:29;;;;;;;6.50;3.00;;;;;;;13.39;35.51;101294.55;103679;268;40035;-75
2023/04/04 06:43:03;;;;;;;5.80;2.80;;;;;;;13.45;34.98;101290.65;103680;279;39677;-74
2023/04/04 06:45:39;;;;;;;6.80;3.30;;;;;;;13.34;34.41;101289.11;103675;279;38421;-76
2023/04/04 06:48:13;;;;;;;4.90;2.60;;;;;;;13.05;34.04;101288.31;103663;279;39283;-76
2023/04/04 06:50:47;;;;;;;4.70;3.10;;;;;;;12.72;34.45;101291.70;103665;279;38286;-75
2023/04/04 06:53:23;;;;;;;5.10;3.10;;;;;;;12.59;34.31;101285.98;103575;281;38240;-72
2023/04/04 06:55:58;;;;;;;4.70;3.00;;;;;;;12.52;34.92;101285.48;103679;279;39421;-76
2023/04/04 06:58:33;;;;;;;5.00;3.20;;;;;;;12.66;34.79;101281.71;103666;279;38852;-75
2023/04/04 07:01:09;;;;;;;6.50;3.40;;;;;;;12.82;34.37;101276.30;103719;279;38269;-74
2023/04/04 07:03:44;;;;;;;4.80;3.00;;;;;;;13.01;34.09;101274.98;103545;279;39430;-73
2023/04/04 07:06:20;;;;;;;4.60;2.90;;;;;;;13.51;33.82;101275.89;103696;279;39654;-74
2023/04/04 07:08:55;;;;;;;5.60;3.50;;;;;;;14.03;33.36;101271.71;103551;279;38707;-73
2023/04/04 07:11:29;;;;;;;5.50;3.40;;;;;;;14.29;32.20;101275.09;103677;279;38247;-75
2023/04/04 07:14:04;;;;;;;5.00;3.00;;;;;;;14.46;31.73;101270.90;103683;279;38815;-74
2023/04/04 07:16:38;;;;;;;4.90;3.30;;;;;;;14.84;31.08;101266.56;103653;279;38400;-73
2023/04/04 07:19:12;;;;;;;4.70;3.10;;;;;;;15.14;30.68;101272.70;103718;279;38732;-75
2023/04/04 07:21:50;;;;;;;6.40;3.50;;;;;;;15.25;30.14;101271.55;103621;279;38221;-74
2023/04/04 07:24:23;;;;;;;;;;;;;;;15.35;29.43;101271.62;103645;279;174579;-77
2023/04/04 07:26:57;;;;;;;5.90;3.00;;;;;;;15.30;30.05;101268.34;103733;279;39673;-75
2023/04/04 07:29:31;;;;;;;4.00;2.50;;;;;;;15.46;29.46;101266.55;103686;279;38490;-73
2023/04/04 07:32:05;;;;;;;3.80;2.50;;;;;;;15.18;29.63;101267.75;103699;279;39730;-76
2023/04/04 07:34:39;;;;;;;4.00;2.60;;;;;;;14.56;29.94;101271.75;103712;279;38409;-75
2023/04/04 07:37:13;;;;;;;5.80;2.60;;;;;;;13.81;31.01;101277.44;103720;279;39315;-75
2023/04/04 07:39:48;;;;;;;4.90;2.70;;;;;;;13.17;31.72;101278.63;103680;268;38259;-76
2023/04/04 07:42:23;;;;;;;5.50;2.90;;;;;;;12.46;32.50;101280.95;103528;279;38672;-74
2023/04/04 07:44:57;;;;;;;4.20;2.60;;;;;;;11.76;33.30;101282.48;103696;279;38611;-74
2023/04/04 07:47:32;;;;;;;5.80;2.80;;;;;;;11.33;34.10;101279.29;103699;279;39235;-76
2023/04/04 07:50:08;;;;;;;6.10;2.80;;;;;;;11.20;34.97;101280.86;103415;279;175018;-75
2023/04/04 07:52:42;;;;;;;4.90;2.80;;;;;;;11.17;35.04;101277.09;103685;279;38282;-73
2023/04/04 07:55:16;;;;;;;5.20;2.80;;;;;;;10.97;35.40;101275.70;103673;279;38545;-74
2023/04/04 07:57:50;;;;;;;6.60;3.20;;;;;;;11.40;36.48;101270.20;103594;279;174988;-72
2023/04/04 08:00:27;;;;;;;3.80;2.60;;;;;;;12.21;36.09;101273.52;103683;279;40426;-74
2023/04/04 08:03:03;;;;;;;7.50;2.80;;;;;;;13.15;34.97;101267.00;103703;279;39654;-75
2023/04/04 08:05:37;;;;;;;4.60;3.10;;;;;;;13.85;33.28;101264.83;103487;279;38868;-76
2023/04/04 08:08:12;;;;;;;3.80;2.40;;;;;;;14.35;32.13;101260.81;103700;279;39517;-76
2023/04/04 08:10:48;;;;;;;6.80;3.20;;;;;;;14.88;31.72;101251.30;103675;279;38539;-76
2023/04/04 08:13:22;;;;;;;5.30;2.80;;;;;;;15.68;31.71;101246.45;103541;279;38106;-75
2023/04/04 08:15:58;;;;;;;6.10;3.20;;;;;;;16.56;29.99;101246.00;103675;279;38976;-77
2023/04/04 08:18:33;;;;;;;4.30;2.70;;;;;;;17.08;29.23;101241.14;103717;279;38463;-75
2023/04/04 08:21:08;;;;;;;5.00;2.50;;;;;;;17.73;28.25;101240.52;103714;279;38596;-75
2023/04/04 08:23:42;;;;;;;5.70;3.10;;;;;;;17.77;26.81;101239.80;103666;279;38242;-76
2023/04/04 08:26:17;;;;;;;5.60;3.00;;;;;;;17.17;27.18;101243.14;103102;279;893628;-75
2023/04/04 08:28:53;;;;;;;4.00;2.90;;;;;;;16.30;27.15;101245.67;103534;279;39396;-73
2023/04/04 08:31:29;;;;;;;5.70;3.10;;;;;;;15.34;28.20;101244.42;103707;279;38727;-75
2023/04/04 08:34:07;;;;;;;4.00;2.70;;;;;;;15.60;29.92;101239.20;103661;279;38880;-75
2023/04/04 08:36:43;;;;;;;5.00;2.80;;;;;;;15.92;28.58;101239.04;103661;279;39808;-77
2023/04/04 08:39:19;;;;;;;6.10;3.00;;;;;;;15.21;28.53;101242.36;103546;279;38777;-76
2023/04/04 08:41:58;;;;;;;5.20;3.10;;;;;;;14.93;29.49;101237.75;103764;279;39648;-75
2023/04/04 08:44:30;;;;;;;;;;;;;;;14.40;29.35;101237.27;103732;279;38359;-74
2023/04/04 08:47:06;;;;;;;3.80;2.50;;;;;;;13.58;30.27;101239.54;103704;279;38390;-74
2023/04/04 08:49:43;;;;;;;6.40;2.90;;;;;;;12.84;30.33;101245.26;103676;268;39399;-75
2023/04/04 08:52:18;;;;;;;4.60;2.50;;;;;;;12.46;31.30;101243.16;103447;279;175159;-74
2023/04/04 08:54:53;;;;;;;7.10;2.40;;;;;;;12.04;31.29;101248.83;103702;279;39995;-75
2023/04/04 08:57:27;;;;;;;4.50;2.40;;;;;;;11.37;31.37;101245.98;103706;279;39444;-74
2023/04/04 09:00:04;;;;;;;3.90;2.00;;;;;;;10.69;32.18;101245.13;103713;279;39437;-74
2023/04/04 09:02:43;;;;;;;3.20;2.10;;;;;;;10.15;32.85;101247.61;103698;279;38929;-75
2023/04/04 09:05:18;;;;;;;2.60;1.60;;;;;;;9.68;33.27;101247.17;103722;279;39921;-74
2023/04/04 09:07:52;;;;;;;4.30;1.70;;;;;;;9.82;34.15;101246.73;103754;279;38603;-75
2023/04/04 09:10:28;;;;;;;2.60;1.80;;;;;;;10.31;32.69;101243.77;103510;270;40103;-74
2023/04/04 09:13:02;;;;;;;3.50;1.70;;;;;;;10.10;32.03;101242.48;103554;279;38713;-74
2023/04/04 09:15:38;;;;;;;3.00;1.60;;;;;;;9.76;31.73;101244.77;103702;279;39673;-76
2023/04/04 09:18:12;;;;;;;4.20;1.60;;;;;;;9.28;32.50;101249.19;103688;279;38502;-74
2023/04/04 09:20:47;;;;;;;4.80;2.10;;;;;;;8.79;33.42;101246.57;103091;279;920672;-72
2023/04/04 09:23:22;;;;;;;4.10;1.70;;;;;;;8.36;34.05;101252.98;103477;280;39385;-76
2023/04/04 09:26:01;;;;;;;3.80;1.60;;;;;;;8.02;34.66;101252.56;103530;279;38366;-75
2023/04/04 09:28:35;;;;;;;3.20;1.50;;;;;;;8.70;35.88;101246.54;103704;279;39330;-75
2023/04/04 09:31:10;;;;;;;4.10;1.60;;;;;;;9.83;34.84;101239.21;103724;279;38823;-74
2023/04/04 09:33:44;;;;;;;3.70;1.70;;;;;;;11.08;33.78;101233.83;103258;279;568522;-75
2023/04/04 09:36:19;;;;;;;3.80;1.50;;;;;;;12.12;31.70;101227.96;103716;268;39471;-76
2023/04/04 09:38:53;;;;;;;3.30;1.60;;;;;;;11.99;30.02;101236.02;103700;279;38323;-76
2023/04/04 09:41:26;;;;;;;2.40;1.20;;;;;;;11.29;29.35;101236.77;103542;279;38809;-74
2023/04/04 09:44:01;;;;;;;3.00;1.40;;;;;;;10.50;29.69;101243.14;103654;279;38874;-75
2023/04/04 09:46:36;;;;;;;2.10;1.30;;;;;;;9.77;30.72;101248.58;103688;279;38500;-72
2023/04/04 09:49:13;;;;;;;2.20;1.20;;;;;;;9.25;31.42;101245.94;103649;279;38224;-73
2023/04/04 09:51:51;;;;;;;3.90;1.60;;;;;;;9.50;34.06;101236.40;103668;268;39457;-75
2023/04/04 09:54:26;;;;;;;2.40;1.10;;;;;;;9.96;32.78;101230.39;103661;279;38581;-76
2023/04/04 09:56:59;;;;;;;2.90;1.60;;;;;;;10.07;31.84;101235.05;103669;279;39005;-74
2023/04/04 09:59:33;;;;;;;1.60;1.00;;;;;;;9.65;31.03;101237.15;103650;279;38238;-74
2023/04/04 10:02:08;;;;;;;4.50;1.20;;;;;;;9.09;31.86;101233.16;103536;279;38256;-74
2023/04/04 10:04:52;;;;;;;3.60;1.30;;;;;;;8.67;32.59;101233.90;103684;279;37988;-76
2023/04/04 10:07:26;;;;;;;2.20;1.40;;;;;;;8.48;33.57;101238.55;103685;279;38431;-74
2023/04/04 10:10:02;;;;;;;2.80;1.40;;;;;;;8.52;33.88;101235.36;103650;279;40198;-74
2023/04/04 10:12:37;;;;;;;2.50;1.20;;;;;;;8.51;33.55;101245.13;103669;279;39801;-74
2023/04/04 10:15:13;;;;;;;4.20;1.00;;;;;;;8.37;33.59;101245.14;103681;279;40171;-74
2023/04/04 10:17:48;;;;;;;2.50;1.10;;;;;;;8.36;33.94;101245.16;103713;279;39636;-74
2023/04/04 10:20:22;;;;;;;1.80;1.10;;;;;;;8.18;33.74;101248.19;103683;279;39641;-73
2023/04/04 10:22:56;;;;;;;1.90;1.00;;;;;;;7.95;33.83;101247.98;103708;279;38512;-72
2023/04/04 10:25:30;;;;;;;2.80;1.60;;;;;;;7.77;34.39;101249.07;103696;279;39643;-76
2023/04/04 10:28:04;;;;;;;1.80;1.00;;;;;;;7.56;34.68;101244.64;103688;279;38263;-73
2023/04/04 10:30:43;;;;;;;3.40;1.80;;;;;;;7.50;35.64;101237.92;103662;279;39991;-75
2023/04/04 10:33:23;;;;;;;3.90;1.80;;;;;;;7.55;35.72;101237.02;103603;279;175310;-72
2023/04/04 10:35:59;;;;;;;4.00;1.70;;;;;;;7.61;36.18;101236.59;103528;279;38663;-72
2023/04/04 10:38:36;;;;;;;7.20;2.30;;;;;;;7.62;36.16;101241.10;103676;279;38235;-74
2023/04/04 10:41:10;;;;;;;5.20;1.80;;;;;;;7.60;36.32;101238.33;103680;279;38824;-71
2023/04/04 10:43:45;;;;;;;4.30;2.10;;;;;;;7.47;36.06;101234.48;103661;279;38419;-73
2023/04/04 10:46:21;;;;;;;3.50;2.00;;;;;;;7.36;36.25;101235.84;103693;279;38536;-75
2023/04/04 10:48:55;;;;;;;2.10;1.20;;;;;;;7.25;36.14;101236.48;103643;279;38284;-74
2023/04/04 10:51:30;;;;;;;2.20;1.10;;;;;;;7.04;35.97;101237.55;103682;279;38506;-73
2023/04/04 10:54:04;;;;;;;2.90;1.40;;;;;;;6.81;36.20;101236.38;103494;279;39337;-75
2023/04/04 10:56:37;;;;;;;1.60;1.10;;;;;;;6.60;36.45;101235.33;103689;278;39670;-74
2023/04/04 10:59:17;;;;;;;1.90;1.10;;;;;;;6.49;37.10;101238.02;103703;279;38832;-74
2023/04/04 11:01:57;;;;;;;2.80;1.20;;;;;;;6.44;37.49;101231.82;103700;279;38664;-75
2023/04/04 11:04:36;;;;;;;3.20;1.20;;;;;;;6.32;37.27;101225.65;103684;279;37974;-73
2023/04/04 11:07:18;;;;;;;3.00;1.20;;;;;;;6.36;38.03;101222.69;103730;279;38343;-74
2023/04/04 11:09:56;;;;;;;2.20;1.00;;;;;;;6.58;38.45;101219.58;103677;279;38442;-75
2023/04/04 11:12:35;;;;;;;2.40;0.80;;;;;;;6.73;37.39;101219.79;103675;279;38509;-75
2023/04/04 11:15:15;;;;;;;1.80;0.90;;;;;;;6.62;36.55;101218.14;103036;272;910240;-75
2023/04/04 11:18:11;;;;;;;2.80;1.00;;;;;;;6.42;36.66;101222.46;103726;279;39165;-74
2023/04/04 11:20:47;;;;;;;2.90;1.40;;;;;;;6.08;38.08;101231.52;103509;279;38653;-76
2023/04/04 11:23:23;;;;;;;2.60;1.60;;;;;;;5.73;38.95;101232.88;103708;279;38384;-75
2023/04/04 11:26:00;;;;;;;2.90;1.50;;;;;;;5.44;39.86;101237.31;103690;279;39449;-75
2023/04/04 11:28:47;;;;;;;3.10;1.60;;;;;;;5.19;40.60;101234.61;103699;279;39699;-72
2023/04/04 11:31:31;;;;;;;3.90;1.60;;;;;;;4.97;41.20;101236.55;103709;279;39604;-73
2023/04/04 11:34:06;;;;;;;4.00;2.00;;;;;;;4.83;41.47;101236.05;103624;279;39655;-73
2023/04/04 11:37:00;;;;;;;3.70;1.90;;;;;;;4.75;41.99;101230.34;103732;279;38277;-73
2023/04/04 11:39:35;;;;;;;3.60;1.80;;;;;;;4.74;42.51;101226.88;103695;279;38748;-73
2023/04/04 11:42:13;;;;;;;6.00;2.30;;;;;;;4.79;42.42;101223.24;103710;268;39961;-74
2023/04/04 11:45:08;;;;;;;3.20;2.10;;;;;;;4.93;42.42;101224.10;103654;279;38249;-74
2023/04/04 11:47:46;;;;;;;3.20;1.50;;;;;;;5.11;42.23;101220.27;103665;279;39993;-75
2023/04/04 11:50:20;;;;;;;3.60;1.40;;;;;;;5.21;41.88;101221.80;103688;279;39364;-73
2023/04/04 11:52:55;;;;;;;3.00;1.40;;;;;;;5.23;41.63;101219.20;103680;279;40088;-75
2023/04/04 11:55:30;;;;;;;3.10;1.90;;;;;;;5.16;41.68;101220.42;103680;279;38942;-74
2023/04/04 11:58:15;;;;;;;4.00;1.40;;;;;;;5.01;41.80;101226.85;103684;279;38304;-73
2023/04/04 12:00:49;;;;;;;2.70;1.50;;;;;;;4.86;42.16;101228.25;103682;279;39655;-71
2023/04/04 12:03:24;;;;;;;3.20;1.30;;;;;;;4.77;42.34;101233.44;103676;279;38492;-71
2023/04/04 12:06:12;;;;;;;2.40;1.50;;;;;;;4.71;42.73;101227.41;103688;279;38544;-74